sensor_id;sensor_type;location;lat;lon;timestamp;P1;durP1;ratioP1;P2;durP2;ratioP2
56319;SDS011;42226;42.382;23.748;2022-07-21T00:00:19;2.85;;;1.80;;
56319;SDS011;42226;42.382;23.748;2022-07-21T00:02:48;2.00;;;1.73;;
56319;SDS011;42226;42.382;23.748;2022-07-21T00:05:16;2.33;;;1.98;;
56319;SDS011;42226;42.382;23.748;2022-07-21T00:07:43;2.00;;;1.80;;
56319;SDS011;42226;42.382;23.748;2022-07-21T00:10:10;3.45;;;2.10;;
56319;SDS011;42226;42.382;23.748;2022-07-21T00:12:37;2.78;;;2.10;;
56319;SDS011;42226;42.382;23.748;2022-07-21T00:15:05;1.98;;;1.88;;
56319;SDS011;42226;42.382;23.748;2022-07-21T00:17:32;4.00;;;2.00;;
56319;SDS011;42226;42.382;23.748;2022-07-21T00:19:59;2.22;;;1.88;;
56319;SDS011;42226;42.382;23.748;2022-07-21T00:22:28;2.67;;;2.00;;
56319;SDS011;42226;42.382;23.748;2022-07-21T00:24:56;2.72;;;2.08;;
56319;SDS011;42226;42.382;23.748;2022-07-21T00:27:23;2.40;;;2.10;;
56319;SDS011;42226;42.382;23.748;2022-07-21T00:29:50;3.90;;;2.00;;
56319;SDS011;42226;42.382;23.748;2022-07-21T00:32:17;2.10;;;1.90;;
56319;SDS011;42226;42.382;23.748;2022-07-21T00:34:44;4.05;;;2.08;;
56319;SDS011;42226;42.382;23.748;2022-07-21T00:37:10;2.10;;;1.90;;
56319;SDS011;42226;42.382;23.748;2022-07-21T00:39:37;2.53;;;1.90;;
56319;SDS011;42226;42.382;23.748;2022-07-21T00:42:04;2.42;;;1.90;;
56319;SDS011;42226;42.382;23.748;2022-07-21T00:44:31;2.58;;;1.95;;
56319;SDS011;42226;42.382;23.748;2022-07-21T00:46:58;2.33;;;1.80;;
56319;SDS011;42226;42.382;23.748;2022-07-21T00:49:25;2.00;;;1.70;;
56319;SDS011;42226;42.382;23.748;2022-07-21T00:51:52;2.00;;;1.70;;
56319;SDS011;42226;42.382;23.748;2022-07-21T00:54:19;2.10;;;1.90;;
56319;SDS011;42226;42.382;23.748;2022-07-21T00:56:46;1.90;;;1.70;;
56319;SDS011;42226;42.382;23.748;2022-07-21T00:59:15;2.20;;;2.00;;
56319;SDS011;42226;42.382;23.748;2022-07-21T01:01:42;2.10;;;1.77;;
56319;SDS011;42226;42.382;23.748;2022-07-21T01:04:09;3.83;;;1.98;;
56319;SDS011;42226;42.382;23.748;2022-07-21T01:06:35;2.50;;;1.98;;
56319;SDS011;42226;42.382;23.748;2022-07-21T01:09:02;2.65;;;1.80;;
56319;SDS011;42226;42.382;23.748;2022-07-21T01:11:29;2.72;;;1.90;;
56319;SDS011;42226;42.382;23.748;2022-07-21T01:13:57;1.92;;;1.80;;
56319;SDS011;42226;42.382;23.748;2022-07-21T01:16:24;4.03;;;1.90;;
56319;SDS011;42226;42.382;23.748;2022-07-21T01:18:51;1.75;;;1.65;;
56319;SDS011;42226;42.382;23.748;2022-07-21T01:21:28;3.00;;;1.90;;
56319;SDS011;42226;42.382;23.748;2022-07-21T01:24:06;2.17;;;1.83;;
56319;SDS011;42226;42.382;23.748;2022-07-21T01:26:44;2.83;;;1.80;;
56319;SDS011;42226;42.382;23.748;2022-07-21T01:29:16;2.40;;;2.05;;
56319;SDS011;42226;42.382;23.748;2022-07-21T01:31:44;4.55;;;2.10;;
56319;SDS011;42226;42.382;23.748;2022-07-21T01:34:12;2.10;;;1.90;;
56319;SDS011;42226;42.382;23.748;2022-07-21T01:36:39;4.25;;;2.00;;
56319;SDS011;42226;42.382;23.748;2022-07-21T01:39:06;2.78;;;2.08;;
56319;SDS011;42226;42.382;23.748;2022-07-21T01:41:52;2.67;;;2.05;;
56319;SDS011;42226;42.382;23.748;2022-07-21T01:44:18;5.22;;;1.90;;
56319;SDS011;42226;42.382;23.748;2022-07-21T01:46:46;3.20;;;1.80;;
56319;SDS011;42226;42.382;23.748;2022-07-21T01:49:16;2.30;;;1.70;;
56319;SDS011;42226;42.382;23.748;2022-07-21T01:51:44;2.83;;;1.88;;
56319;SDS011;42226;42.382;23.748;2022-07-21T01:54:12;2.78;;;1.88;;
56319;SDS011;42226;42.382;23.748;2022-07-21T01:56:40;2.50;;;2.15;;
56319;SDS011;42226;42.382;23.748;2022-07-21T01:59:07;2.35;;;1.90;;
56319;SDS011;42226;42.382;23.748;2022-07-21T02:01:33;2.45;;;2.08;;
56319;SDS011;42226;42.382;23.748;2022-07-21T02:04:01;2.80;;;1.80;;
56319;SDS011;42226;42.382;23.748;2022-07-21T02:06:29;2.13;;;1.90;;
56319;SDS011;42226;42.382;23.748;2022-07-21T02:08:56;3.97;;;2.00;;
56319;SDS011;42226;42.382;23.748;2022-07-21T02:11:23;2.17;;;1.88;;
56319;SDS011;42226;42.382;23.748;2022-07-21T02:13:49;2.58;;;2.00;;
56319;SDS011;42226;42.382;23.748;2022-07-21T02:16:16;3.95;;;2.00;;
56319;SDS011;42226;42.382;23.748;2022-07-21T02:18:43;2.55;;;1.90;;
56319;SDS011;42226;42.382;23.748;2022-07-21T02:21:10;2.20;;;1.98;;
56319;SDS011;42226;42.382;23.748;2022-07-21T02:23:37;2.25;;;1.80;;
56319;SDS011;42226;42.382;23.748;2022-07-21T02:26:04;2.45;;;1.88;;
56319;SDS011;42226;42.382;23.748;2022-07-21T02:28:30;2.75;;;1.80;;
56319;SDS011;42226;42.382;23.748;2022-07-21T02:30:57;3.35;;;2.13;;
56319;SDS011;42226;42.382;23.748;2022-07-21T02:33:24;3.63;;;1.95;;
56319;SDS011;42226;42.382;23.748;2022-07-21T02:35:50;4.35;;;2.15;;
56319;SDS011;42226;42.382;23.748;2022-07-21T02:38:17;3.13;;;1.90;;
56319;SDS011;42226;42.382;23.748;2022-07-21T02:40:43;2.00;;;1.90;;
56319;SDS011;42226;42.382;23.748;2022-07-21T02:43:10;2.95;;;1.90;;
56319;SDS011;42226;42.382;23.748;2022-07-21T02:45:36;4.57;;;2.03;;
56319;SDS011;42226;42.382;23.748;2022-07-21T02:48:05;2.05;;;1.70;;
56319;SDS011;42226;42.382;23.748;2022-07-21T02:50:35;3.70;;;1.90;;
56319;SDS011;42226;42.382;23.748;2022-07-21T02:53:05;2.40;;;1.80;;
56319;SDS011;42226;42.382;23.748;2022-07-21T02:55:35;2.67;;;2.03;;
56319;SDS011;42226;42.382;23.748;2022-07-21T02:58:12;2.30;;;1.90;;
56319;SDS011;42226;42.382;23.748;2022-07-21T03:00:52;3.83;;;1.90;;
56319;SDS011;42226;42.382;23.748;2022-07-21T03:03:20;4.65;;;2.03;;
56319;SDS011;42226;42.382;23.748;2022-07-21T03:05:49;2.50;;;1.70;;
56319;SDS011;42226;42.382;23.748;2022-07-21T03:08:16;5.75;;;2.15;;
56319;SDS011;42226;42.382;23.748;2022-07-21T03:10:43;2.28;;;1.77;;
56319;SDS011;42226;42.382;23.748;2022-07-21T03:13:10;2.33;;;2.00;;
56319;SDS011;42226;42.382;23.748;2022-07-21T03:15:37;2.70;;;1.70;;
56319;SDS011;42226;42.382;23.748;2022-07-21T03:18:04;4.57;;;2.03;;
56319;SDS011;42226;42.382;23.748;2022-07-21T03:20:33;2.85;;;1.75;;
56319;SDS011;42226;42.382;23.748;2022-07-21T03:23:02;2.15;;;1.60;;
56319;SDS011;42226;42.382;23.748;2022-07-21T03:25:30;2.75;;;1.83;;
56319;SDS011;42226;42.382;23.748;2022-07-21T03:27:57;2.10;;;1.90;;
56319;SDS011;42226;42.382;23.748;2022-07-21T03:30:24;1.92;;;1.80;;
56319;SDS011;42226;42.382;23.748;2022-07-21T03:32:51;2.95;;;2.00;;
56319;SDS011;42226;42.382;23.748;2022-07-21T03:35:18;2.28;;;2.08;;
56319;SDS011;42226;42.382;23.748;2022-07-21T03:37:47;2.55;;;1.77;;
56319;SDS011;42226;42.382;23.748;2022-07-21T03:40:20;3.65;;;1.85;;
56319;SDS011;42226;42.382;23.748;2022-07-21T03:42:51;2.53;;;2.03;;
56319;SDS011;42226;42.382;23.748;2022-07-21T03:45:20;1.98;;;1.88;;
56319;SDS011;42226;42.382;23.748;2022-07-21T03:47:48;3.30;;;2.08;;
56319;SDS011;42226;42.382;23.748;2022-07-21T03:50:15;2.00;;;1.83;;
56319;SDS011;42226;42.382;23.748;2022-07-21T03:52:43;2.80;;;1.70;;
56319;SDS011;42226;42.382;23.748;2022-07-21T03:55:10;2.88;;;2.10;;
56319;SDS011;42226;42.382;23.748;2022-07-21T03:57:47;2.47;;;2.20;;
56319;SDS011;42226;42.382;23.748;2022-07-21T04:00:24;2.05;;;1.70;;
56319;SDS011;42226;42.382;23.748;2022-07-21T04:02:58;3.17;;;2.00;;
56319;SDS011;42226;42.382;23.748;2022-07-21T04:05:26;3.75;;;2.20;;
56319;SDS011;42226;42.382;23.748;2022-07-21T04:07:53;2.70;;;2.00;;
56319;SDS011;42226;42.382;23.748;2022-07-21T04:10:24;3.10;;;1.70;;
56319;SDS011;42226;42.382;23.748;2022-07-21T04:12:54;2.13;;;1.92;;
56319;SDS011;42226;42.382;23.748;2022-07-21T04:15:21;2.10;;;1.90;;
56319;SDS011;42226;42.382;23.748;2022-07-21T04:17:48;2.40;;;2.13;;
56319;SDS011;42226;42.382;23.748;2022-07-21T04:20:16;1.92;;;1.83;;
56319;SDS011;42226;42.382;23.748;2022-07-21T04:22:44;2.20;;;1.77;;
56319;SDS011;42226;42.382;23.748;2022-07-21T04:25:11;4.88;;;1.88;;
56319;SDS011;42226;42.382;23.748;2022-07-21T04:27:39;2.13;;;1.92;;
56319;SDS011;42226;42.382;23.748;2022-07-21T04:30:07;2.60;;;2.10;;
56319;SDS011;42226;42.382;23.748;2022-07-21T04:32:37;2.42;;;2.03;;
56319;SDS011;42226;42.382;23.748;2022-07-21T04:35:04;3.80;;;1.88;;
56319;SDS011;42226;42.382;23.748;2022-07-21T04:37:32;2.40;;;2.00;;
56319;SDS011;42226;42.382;23.748;2022-07-21T04:39:59;3.35;;;1.92;;
56319;SDS011;42226;42.382;23.748;2022-07-21T04:42:26;2.83;;;1.88;;
56319;SDS011;42226;42.382;23.748;2022-07-21T04:44:53;2.70;;;2.00;;
56319;SDS011;42226;42.382;23.748;2022-07-21T04:47:19;3.17;;;2.15;;
56319;SDS011;42226;42.382;23.748;2022-07-21T04:49:46;2.40;;;2.20;;
56319;SDS011;42226;42.382;23.748;2022-07-21T04:52:12;2.25;;;2.05;;
56319;SDS011;42226;42.382;23.748;2022-07-21T04:54:39;2.00;;;1.80;;
56319;SDS011;42226;42.382;23.748;2022-07-21T04:57:06;4.15;;;2.10;;
56319;SDS011;42226;42.382;23.748;2022-07-21T04:59:33;2.08;;;1.90;;
56319;SDS011;42226;42.382;23.748;2022-07-21T05:02:00;3.05;;;1.98;;
56319;SDS011;42226;42.382;23.748;2022-07-21T05:04:28;2.03;;;1.83;;
56319;SDS011;42226;42.382;23.748;2022-07-21T05:06:54;3.30;;;1.90;;
56319;SDS011;42226;42.382;23.748;2022-07-21T05:09:21;3.35;;;1.92;;
56319;SDS011;42226;42.382;23.748;2022-07-21T05:11:48;1.73;;;1.63;;
56319;SDS011;42226;42.382;23.748;2022-07-21T05:14:14;2.20;;;2.00;;
56319;SDS011;42226;42.382;23.748;2022-07-21T05:16:42;2.85;;;1.80;;
56319;SDS011;42226;42.382;23.748;2022-07-21T05:19:10;2.10;;;1.90;;
56319;SDS011;42226;42.382;23.748;2022-07-21T05:21:37;4.07;;;1.90;;
56319;SDS011;42226;42.382;23.748;2022-07-21T05:24:04;2.20;;;2.00;;
56319;SDS011;42226;42.382;23.748;2022-07-21T05:26:31;2.70;;;1.95;;
56319;SDS011;42226;42.382;23.748;2022-07-21T05:28:57;2.50;;;2.10;;
56319;SDS011;42226;42.382;23.748;2022-07-21T05:31:24;5.95;;;2.25;;
56319;SDS011;42226;42.382;23.748;2022-07-21T05:33:50;2.28;;;2.08;;
56319;SDS011;42226;42.382;23.748;2022-07-21T05:36:17;2.33;;;1.95;;
56319;SDS011;42226;42.382;23.748;2022-07-21T05:38:43;2.58;;;2.10;;
56319;SDS011;42226;42.382;23.748;2022-07-21T05:41:10;2.00;;;1.80;;
56319;SDS011;42226;42.382;23.748;2022-07-21T05:43:37;2.65;;;2.13;;
56319;SDS011;42226;42.382;23.748;2022-07-21T05:46:03;4.05;;;2.00;;
56319;SDS011;42226;42.382;23.748;2022-07-21T05:48:30;2.38;;;2.00;;
56319;SDS011;42226;42.382;23.748;2022-07-21T05:50:56;3.53;;;2.17;;
56319;SDS011;42226;42.382;23.748;2022-07-21T05:53:23;2.45;;;2.00;;
56319;SDS011;42226;42.382;23.748;2022-07-21T05:55:50;3.08;;;2.15;;
56319;SDS011;42226;42.382;23.748;2022-07-21T05:58:16;3.08;;;2.03;;
56319;SDS011;42226;42.382;23.748;2022-07-21T06:00:44;2.05;;;1.83;;
56319;SDS011;42226;42.382;23.748;2022-07-21T06:03:31;2.20;;;2.03;;
56319;SDS011;42226;42.382;23.748;2022-07-21T06:05:57;4.80;;;2.20;;
56319;SDS011;42226;42.382;23.748;2022-07-21T06:08:24;2.53;;;1.92;;
56319;SDS011;42226;42.382;23.748;2022-07-21T06:10:51;2.92;;;1.95;;
56319;SDS011;42226;42.382;23.748;2022-07-21T06:13:17;2.85;;;2.10;;
56319;SDS011;42226;42.382;23.748;2022-07-21T06:15:44;3.85;;;2.35;;
56319;SDS011;42226;42.382;23.748;2022-07-21T06:18:10;2.13;;;1.85;;
56319;SDS011;42226;42.382;23.748;2022-07-21T06:20:37;3.10;;;2.10;;
56319;SDS011;42226;42.382;23.748;2022-07-21T06:23:04;3.95;;;2.15;;
56319;SDS011;42226;42.382;23.748;2022-07-21T06:25:31;2.40;;;1.95;;
56319;SDS011;42226;42.382;23.748;2022-07-21T06:27:58;2.78;;;2.00;;
56319;SDS011;42226;42.382;23.748;2022-07-21T17:31:34;3.78;;;2.58;;
56319;SDS011;42226;42.382;23.748;2022-07-21T17:34:01;5.05;;;2.60;;
56319;SDS011;42226;42.382;23.748;2022-07-21T17:36:28;4.20;;;2.78;;
56319;SDS011;42226;42.382;23.748;2022-07-21T17:38:56;3.75;;;2.60;;
56319;SDS011;42226;42.382;23.748;2022-07-21T17:41:24;4.78;;;2.67;;
56319;SDS011;42226;42.382;23.748;2022-07-21T17:43:51;4.15;;;2.70;;
56319;SDS011;42226;42.382;23.748;2022-07-21T17:46:18;4.43;;;2.83;;
56319;SDS011;42226;42.382;23.748;2022-07-21T17:48:45;5.90;;;2.85;;
56319;SDS011;42226;42.382;23.748;2022-07-21T17:51:12;4.80;;;2.53;;
56319;SDS011;42226;42.382;23.748;2022-07-21T17:53:41;3.78;;;2.58;;
56319;SDS011;42226;42.382;23.748;2022-07-21T17:56:08;3.80;;;2.78;;
56319;SDS011;42226;42.382;23.748;2022-07-21T17:58:36;4.18;;;2.50;;
56319;SDS011;42226;42.382;23.748;2022-07-21T18:01:09;5.40;;;2.80;;
56319;SDS011;42226;42.382;23.748;2022-07-21T18:03:49;3.10;;;2.55;;
56319;SDS011;42226;42.382;23.748;2022-07-21T18:06:17;3.55;;;2.40;;
56319;SDS011;42226;42.382;23.748;2022-07-21T18:08:45;3.17;;;2.33;;
56319;SDS011;42226;42.382;23.748;2022-07-21T18:11:13;6.13;;;2.50;;
56319;SDS011;42226;42.382;23.748;2022-07-21T18:13:40;4.60;;;2.70;;
56319;SDS011;42226;42.382;23.748;2022-07-21T18:16:07;5.30;;;2.75;;
56319;SDS011;42226;42.382;23.748;2022-07-21T18:18:34;3.92;;;2.80;;
56319;SDS011;42226;42.382;23.748;2022-07-21T18:21:03;3.15;;;2.50;;
56319;SDS011;42226;42.382;23.748;2022-07-21T18:23:30;4.65;;;2.63;;
56319;SDS011;42226;42.382;23.748;2022-07-21T18:25:57;3.95;;;2.50;;
56319;SDS011;42226;42.382;23.748;2022-07-21T18:28:23;5.72;;;2.42;;
56319;SDS011;42226;42.382;23.748;2022-07-21T18:30:50;6.40;;;2.60;;
56319;SDS011;42226;42.382;23.748;2022-07-21T18:33:17;7.60;;;2.67;;
56319;SDS011;42226;42.382;23.748;2022-07-21T18:35:44;7.28;;;2.65;;
56319;SDS011;42226;42.382;23.748;2022-07-21T18:38:10;6.75;;;2.75;;
56319;SDS011;42226;42.382;23.748;2022-07-21T18:40:37;4.28;;;2.40;;
56319;SDS011;42226;42.382;23.748;2022-07-21T18:43:03;4.78;;;2.40;;
56319;SDS011;42226;42.382;23.748;2022-07-21T18:45:31;3.17;;;2.40;;
56319;SDS011;42226;42.382;23.748;2022-07-21T18:48:02;4.80;;;2.50;;
56319;SDS011;42226;42.382;23.748;2022-07-21T18:50:30;6.40;;;2.60;;
56319;SDS011;42226;42.382;23.748;2022-07-21T18:52:57;4.35;;;2.47;;
56319;SDS011;42226;42.382;23.748;2022-07-21T18:55:24;5.60;;;2.90;;
56319;SDS011;42226;42.382;23.748;2022-07-21T18:57:50;5.90;;;2.67;;
56319;SDS011;42226;42.382;23.748;2022-07-21T19:00:17;5.18;;;2.67;;
56319;SDS011;42226;42.382;23.748;2022-07-21T19:02:43;8.05;;;2.70;;
56319;SDS011;42226;42.382;23.748;2022-07-21T19:05:11;4.65;;;2.60;;
56319;SDS011;42226;42.382;23.748;2022-07-21T19:07:38;4.47;;;2.35;;
56319;SDS011;42226;42.382;23.748;2022-07-21T19:10:05;3.97;;;2.50;;
56319;SDS011;42226;42.382;23.748;2022-07-21T19:12:32;3.95;;;2.38;;
56319;SDS011;42226;42.382;23.748;2022-07-21T19:14:59;4.72;;;2.70;;
56319;SDS011;42226;42.382;23.748;2022-07-21T19:17:25;4.35;;;2.70;;
56319;SDS011;42226;42.382;23.748;2022-07-21T19:19:52;4.00;;;2.53;;
56319;SDS011;42226;42.382;23.748;2022-07-21T19:22:19;4.32;;;2.70;;
56319;SDS011;42226;42.382;23.748;2022-07-21T19:24:45;4.93;;;2.63;;
56319;SDS011;42226;42.382;23.748;2022-07-21T19:27:12;4.13;;;2.70;;
56319;SDS011;42226;42.382;23.748;2022-07-21T19:29:38;3.97;;;2.88;;
56319;SDS011;42226;42.382;23.748;2022-07-21T19:32:05;3.28;;;2.58;;
56319;SDS011;42226;42.382;23.748;2022-07-21T19:34:33;4.82;;;2.80;;
56319;SDS011;42226;42.382;23.748;2022-07-21T19:37:00;8.27;;;2.80;;
56319;SDS011;42226;42.382;23.748;2022-07-21T19:39:26;5.30;;;2.72;;
56319;SDS011;42226;42.382;23.748;2022-07-21T19:41:53;4.00;;;2.63;;
56319;SDS011;42226;42.382;23.748;2022-07-21T19:44:19;4.60;;;2.40;;
56319;SDS011;42226;42.382;23.748;2022-07-21T19:46:46;4.80;;;2.67;;
56319;SDS011;42226;42.382;23.748;2022-07-21T19:49:13;3.75;;;2.47;;
56319;SDS011;42226;42.382;23.748;2022-07-21T19:51:39;6.00;;;2.97;;
56319;SDS011;42226;42.382;23.748;2022-07-21T19:54:06;3.28;;;2.90;;
56319;SDS011;42226;42.382;23.748;2022-07-21T19:56:32;5.78;;;2.33;;
56319;SDS011;42226;42.382;23.748;2022-07-21T19:58:59;4.30;;;2.72;;
56319;SDS011;42226;42.382;23.748;2022-07-21T20:01:26;6.13;;;2.80;;
56319;SDS011;42226;42.382;23.748;2022-07-21T20:03:53;3.88;;;2.70;;
56319;SDS011;42226;42.382;23.748;2022-07-21T20:06:20;3.47;;;2.88;;
56319;SDS011;42226;42.382;23.748;2022-07-21T20:08:46;3.92;;;2.63;;
56319;SDS011;42226;42.382;23.748;2022-07-21T20:11:13;5.10;;;2.58;;
56319;SDS011;42226;42.382;23.748;2022-07-21T20:13:40;6.97;;;2.92;;
56319;SDS011;42226;42.382;23.748;2022-07-21T20:16:07;5.85;;;2.72;;
56319;SDS011;42226;42.382;23.748;2022-07-21T20:18:34;3.35;;;2.90;;
56319;SDS011;42226;42.382;23.748;2022-07-21T20:21:00;4.05;;;2.80;;
56319;SDS011;42226;42.382;23.748;2022-07-21T20:23:27;3.00;;;2.70;;
56319;SDS011;42226;42.382;23.748;2022-07-21T20:25:54;5.13;;;2.95;;
56319;SDS011;42226;42.382;23.748;2022-07-21T20:28:21;5.43;;;2.80;;
56319;SDS011;42226;42.382;23.748;2022-07-21T20:30:47;6.07;;;2.70;;
56319;SDS011;42226;42.382;23.748;2022-07-21T20:33:14;8.40;;;2.92;;
56319;SDS011;42226;42.382;23.748;2022-07-21T20:35:40;6.30;;;2.60;;
56319;SDS011;42226;42.382;23.748;2022-07-21T20:38:07;5.40;;;2.30;;
56319;SDS011;42226;42.382;23.748;2022-07-21T20:40:34;6.57;;;3.63;;
56319;SDS011;42226;42.382;23.748;2022-07-21T20:43:06;5.30;;;2.70;;
56319;SDS011;42226;42.382;23.748;2022-07-21T20:45:35;4.80;;;2.60;;
56319;SDS011;42226;42.382;23.748;2022-07-21T20:48:03;11.18;;;3.25;;
56319;SDS011;42226;42.382;23.748;2022-07-21T20:50:30;10.57;;;3.13;;
56319;SDS011;42226;42.382;23.748;2022-07-21T20:52:57;4.88;;;2.70;;
56319;SDS011;42226;42.382;23.748;2022-07-21T20:55:24;4.07;;;3.10;;
56319;SDS011;42226;42.382;23.748;2022-07-21T20:57:51;4.78;;;2.92;;
56319;SDS011;42226;42.382;23.748;2022-07-21T21:00:18;4.93;;;2.92;;
56319;SDS011;42226;42.382;23.748;2022-07-21T21:02:45;6.00;;;3.03;;
56319;SDS011;42226;42.382;23.748;2022-07-21T21:05:12;4.65;;;2.88;;
56319;SDS011;42226;42.382;23.748;2022-07-21T21:07:38;5.95;;;2.90;;
56319;SDS011;42226;42.382;23.748;2022-07-21T21:10:05;3.67;;;2.80;;
56319;SDS011;42226;42.382;23.748;2022-07-21T21:12:32;4.95;;;2.97;;
56319;SDS011;42226;42.382;23.748;2022-07-21T21:14:58;5.00;;;2.88;;
56319;SDS011;42226;42.382;23.748;2022-07-21T21:17:25;3.72;;;2.60;;
56319;SDS011;42226;42.382;23.748;2022-07-21T21:19:51;4.65;;;2.70;;
56319;SDS011;42226;42.382;23.748;2022-07-21T21:22:18;3.92;;;2.80;;
56319;SDS011;42226;42.382;23.748;2022-07-21T21:24:44;5.07;;;3.20;;
56319;SDS011;42226;42.382;23.748;2022-07-21T21:27:11;3.83;;;2.90;;
56319;SDS011;42226;42.382;23.748;2022-07-21T21:29:37;5.40;;;3.10;;
56319;SDS011;42226;42.382;23.748;2022-07-21T21:32:04;3.15;;;2.70;;
56319;SDS011;42226;42.382;23.748;2022-07-21T21:34:31;4.32;;;2.80;;
56319;SDS011;42226;42.382;23.748;2022-07-21T21:36:58;4.65;;;2.80;;
56319;SDS011;42226;42.382;23.748;2022-07-21T21:39:24;4.68;;;2.92;;
56319;SDS011;42226;42.382;23.748;2022-07-21T21:41:51;5.57;;;2.80;;
56319;SDS011;42226;42.382;23.748;2022-07-21T21:44:17;4.80;;;3.28;;
56319;SDS011;42226;42.382;23.748;2022-07-21T21:46:44;4.00;;;2.70;;
56319;SDS011;42226;42.382;23.748;2022-07-21T21:49:10;4.85;;;3.22;;
56319;SDS011;42226;42.382;23.748;2022-07-21T21:51:37;5.60;;;2.90;;
56319;SDS011;42226;42.382;23.748;2022-07-21T21:54:03;4.53;;;3.15;;
56319;SDS011;42226;42.382;23.748;2022-07-21T21:56:30;5.95;;;3.38;;
56319;SDS011;42226;42.382;23.748;2022-07-21T21:58:56;5.10;;;3.33;;
56319;SDS011;42226;42.382;23.748;2022-07-21T22:01:23;6.03;;;2.95;;
56319;SDS011;42226;42.382;23.748;2022-07-21T22:03:49;5.00;;;3.10;;
56319;SDS011;42226;42.382;23.748;2022-07-21T22:06:16;6.03;;;3.00;;
56319;SDS011;42226;42.382;23.748;2022-07-21T22:08:42;4.38;;;2.95;;
56319;SDS011;42226;42.382;23.748;2022-07-21T22:11:09;5.63;;;3.30;;
56319;SDS011;42226;42.382;23.748;2022-07-21T22:13:35;4.97;;;3.15;;
56319;SDS011;42226;42.382;23.748;2022-07-21T22:16:02;4.78;;;2.97;;
56319;SDS011;42226;42.382;23.748;2022-07-21T22:18:29;5.32;;;3.08;;
56319;SDS011;42226;42.382;23.748;2022-07-21T22:20:56;3.40;;;3.00;;
56319;SDS011;42226;42.382;23.748;2022-07-21T22:23:22;6.43;;;3.10;;
56319;SDS011;42226;42.382;23.748;2022-07-21T22:25:49;4.13;;;3.10;;
56319;SDS011;42226;42.382;23.748;2022-07-21T22:28:15;5.72;;;2.97;;
56319;SDS011;42226;42.382;23.748;2022-07-21T22:30:42;5.03;;;3.25;;
56319;SDS011;42226;42.382;23.748;2022-07-21T22:33:09;3.80;;;2.90;;
56319;SDS011;42226;42.382;23.748;2022-07-21T22:35:36;5.05;;;3.08;;
56319;SDS011;42226;42.382;23.748;2022-07-21T22:38:02;4.18;;;3.30;;
56319;SDS011;42226;42.382;23.748;2022-07-21T22:40:29;7.80;;;3.13;;
56319;SDS011;42226;42.382;23.748;2022-07-21T22:42:55;4.07;;;3.30;;
56319;SDS011;42226;42.382;23.748;2022-07-21T22:45:22;5.57;;;3.35;;
56319;SDS011;42226;42.382;23.748;2022-07-21T22:48:02;5.03;;;3.13;;
56319;SDS011;42226;42.382;23.748;2022-07-21T22:50:31;4.43;;;3.33;;
56319;SDS011;42226;42.382;23.748;2022-07-21T22:52:58;5.18;;;3.28;;
56319;SDS011;42226;42.382;23.748;2022-07-21T22:55:26;4.85;;;3.30;;
56319;SDS011;42226;42.382;23.748;2022-07-21T22:57:52;7.88;;;3.67;;
56319;SDS011;42226;42.382;23.748;2022-07-21T23:00:20;5.13;;;3.25;;
56319;SDS011;42226;42.382;23.748;2022-07-21T23:02:46;4.63;;;3.70;;
56319;SDS011;42226;42.382;23.748;2022-07-21T23:05:13;6.50;;;3.80;;
56319;SDS011;42226;42.382;23.748;2022-07-21T23:07:40;4.80;;;3.67;;
56319;SDS011;42226;42.382;23.748;2022-07-21T23:10:06;5.32;;;3.67;;
56319;SDS011;42226;42.382;23.748;2022-07-21T23:12:36;5.88;;;3.95;;
56319;SDS011;42226;42.382;23.748;2022-07-21T23:15:04;6.03;;;3.70;;
56319;SDS011;42226;42.382;23.748;2022-07-21T23:17:33;5.20;;;3.42;;
56319;SDS011;42226;42.382;23.748;2022-07-21T23:20:00;6.22;;;3.85;;
56319;SDS011;42226;42.382;23.748;2022-07-21T23:22:28;4.95;;;3.63;;
56319;SDS011;42226;42.382;23.748;2022-07-21T23:24:54;6.35;;;3.80;;
56319;SDS011;42226;42.382;23.748;2022-07-21T23:27:21;6.22;;;3.60;;
56319;SDS011;42226;42.382;23.748;2022-07-21T23:29:47;4.43;;;3.53;;
56319;SDS011;42226;42.382;23.748;2022-07-21T23:32:14;10.88;;;4.05;;
56319;SDS011;42226;42.382;23.748;2022-07-21T23:34:41;6.68;;;3.63;;
56319;SDS011;42226;42.382;23.748;2022-07-21T23:37:07;6.10;;;3.67;;
56319;SDS011;42226;42.382;23.748;2022-07-21T23:39:34;5.93;;;3.45;;
56319;SDS011;42226;42.382;23.748;2022-07-21T23:42:01;5.75;;;4.35;;
56319;SDS011;42226;42.382;23.748;2022-07-21T23:44:27;5.15;;;4.22;;
56319;SDS011;42226;42.382;23.748;2022-07-21T23:46:54;6.10;;;5.00;;
56319;SDS011;42226;42.382;23.748;2022-07-21T23:49:21;7.00;;;4.82;;
56319;SDS011;42226;42.382;23.748;2022-07-21T23:51:47;6.78;;;5.43;;
56319;SDS011;42226;42.382;23.748;2022-07-21T23:54:14;5.60;;;5.10;;
56319;SDS011;42226;42.382;23.748;2022-07-21T23:56:41;8.07;;;4.93;;
56319;SDS011;42226;42.382;23.748;2022-07-21T23:59:08;7.90;;;5.32;;
